Time;durP1;ratioP1;P1;durP2;ratioP2;P2;SDS_P1;SDS_P2;PMS_P1;PMS_P2;Temp;Humidity;BMP_temperature;BMP_pressure;BME280_temperature;BME280_humidity;BME280_pressure;Samples;Min_cycle;Max_cycle;Signal;HPM_P1;HPM_P2
2021/11/15 00:01:16;;;;;;;2.42;2.22;;;;;;;7.81;87.82;99315.38;4988490;28;20023;-70
2021/11/15 00:03:44;;;;;;;10.25;3.50;;;;;;;7.82;87.61;99311.06;4992719;28;20122;-70
2021/11/15 00:06:10;;;;;;;4.28;2.45;;;;;;;7.80;87.92;99305.06;4994454;28;20484;-70
2021/11/15 00:08:36;;;;;;;6.18;3.08;;;;;;;7.79;87.94;99308.50;4987003;28;20019;-70
2021/11/15 00:11:02;;;;;;;2.95;2.33;;;;;;;7.74;88.18;99313.66;4994122;28;20030;-70
2021/11/15 00:13:27;;;;;;;4.38;2.33;;;;;;;7.74;87.70;99303.34;4994552;28;20026;-70
2021/11/15 00:15:53;;;;;;;10.60;3.47;;;;;;;7.77;87.96;99302.47;4994113;28;20407;-70
2021/11/15 00:18:18;;;;;;;4.93;2.90;;;;;;;7.75;87.29;99302.47;4994350;28;20446;-70
2021/11/15 00:20:44;;;;;;;2.60;1.83;;;;;;;7.75;87.54;99302.47;4994099;28;20399;-70
2021/11/15 00:23:09;;;;;;;2.50;2.13;;;;;;;7.72;87.36;99299.88;4994582;28;20080;-70
2021/11/15 00:25:35;;;;;;;5.45;2.65;;;;;;;7.75;87.48;99302.47;4993990;28;20034;-70
2021/11/15 00:28:00;;;;;;;3.58;2.60;;;;;;;7.72;87.79;99302.44;4994057;28;20522;-70
2021/11/15 00:30:26;;;;;;;2.67;2.28;;;;;;;7.68;87.33;99306.72;4986828;28;20383;-70
2021/11/15 00:32:51;;;;;;;17.15;2.63;;;;;;;7.74;86.53;99305.91;4993753;28;20097;-70
2021/11/15 00:35:17;;;;;;;3.25;2.85;;;;;;;7.70;86.91;99311.91;4993849;28;20022;-70
2021/11/15 00:37:42;;;;;;;4.07;3.15;;;;;;;7.67;87.43;99304.16;4993621;28;20034;-70
2021/11/15 00:40:12;;;;;;;5.15;3.75;;;;;;;7.69;87.40;99312.78;4986490;28;20364;-70
2021/11/15 00:42:37;;;;;;;2.38;1.92;;;;;;;7.72;86.81;99317.94;4994151;28;20030;-70
2021/11/15 00:45:05;;;;;;;3.08;2.55;;;;;;;7.75;86.82;99320.53;4993547;28;20036;-70
2021/11/15 00:47:30;;;;;;;3.22;2.53;;;;;;;7.71;86.44;99321.38;4993639;28;20081;-70
2021/11/15 00:49:56;;;;;;;2.17;1.98;;;;;;;7.68;86.92;99317.06;4993431;28;20022;-70
2021/11/15 00:52:21;;;;;;;2.33;1.92;;;;;;;7.63;87.18;99318.75;4993501;28;20033;-70
2021/11/15 00:54:49;;;;;;;3.80;3.45;;;;;;;7.76;86.90;99314.50;4993369;28;20036;-70
2021/11/15 00:57:14;;;;;;;3.28;2.95;;;;;;;7.67;86.16;99314.47;4993604;28;20518;-70
2021/11/15 00:59:40;;;;;;;2.38;2.17;;;;;;;7.64;86.90;99309.31;4985955;28;20066;-70
2021/11/15 05:15:31;;;;;;;8.63;2.45;;;;;;;6.85;86.32;99290.13;5978840;23;21019;-69
2021/11/15 05:17:56;;;;;;;3.90;1.85;;;;;;;6.78;86.55;99272.91;4973802;28;20384;-69
2021/11/15 05:20:22;;;;;;;2.20;2.08;;;;;;;6.77;86.96;99286.66;4973502;28;20051;-70
2021/11/15 05:22:48;;;;;;;1.10;1.10;;;;;;;6.84;87.06;99277.25;4973697;28;20026;-70
2021/11/15 05:25:15;;;;;;;3.28;1.85;;;;;;;6.85;86.72;99272.09;4973702;28;20401;-69
2021/11/15 05:27:41;;;;;;;2.22;2.05;;;;;;;6.90;85.58;99277.25;4990635;23;20105;-70
2021/11/15 05:30:10;;;;;;;3.22;2.63;;;;;;;6.82;85.50;99277.25;4985373;28;20451;-70
2021/11/15 05:32:35;;;;;;;3.53;2.72;;;;;;;6.87;85.73;99272.97;4992900;28;20026;-70
2021/11/15 05:35:01;;;;;;;4.07;2.05;;;;;;;6.81;86.11;99275.50;4993012;28;20463;-69
2021/11/15 05:37:27;;;;;;;1.40;1.33;;;;;;;6.83;85.92;99276.38;4992924;28;20110;-70
2021/11/15 05:39:53;;;;;;;1.50;1.20;;;;;;;6.87;85.82;99278.13;4992563;28;20587;-70
2021/11/15 05:42:18;;;;;;;6.45;3.83;;;;;;;6.91;85.76;99279.88;4992911;28;20026;-70
2021/11/15 05:44:44;;;;;;;2.28;1.50;;;;;;;6.77;85.97;99273.78;4992851;28;20034;-69
2021/11/15 05:47:09;;;;;;;2.70;2.13;;;;;;;6.82;86.23;99290.13;4992901;28;20030;-69
2021/11/15 05:49:35;;;;;;;2.30;1.85;;;;;;;6.79;85.96;99292.66;4992606;28;20022;-70
2021/11/15 05:52:00;;;;;;;1.70;1.52;;;;;;;6.83;86.02;99297.00;4992744;28;20492;-71
2021/11/15 05:54:26;;;;;;;3.72;2.33;;;;;;;6.83;85.90;99297.00;4931728;28;20489;-70
2021/11/15 05:56:51;;;;;;;2.00;1.88;;;;;;;6.78;85.67;99298.69;4934529;29;20019;-68
2021/11/15 05:59:17;;;;;;;4.47;2.83;;;;;;;6.78;85.80;99300.41;4881094;28;20100;-70
2021/11/15 06:01:43;;;;;;;2.78;2.42;;;;;;;6.81;85.75;99301.25;4817257;28;20044;-70
2021/11/15 06:04:09;;;;;;;2.35;2.13;;;;;;;6.76;85.87;99300.38;4824959;28;20034;-70
2021/11/15 06:06:35;;;;;;;4.95;2.60;;;;;;;6.81;86.38;99301.25;4845412;28;20183;-70
2021/11/15 06:09:00;;;;;;;1.70;1.60;;;;;;;6.78;86.47;99308.97;4798680;28;20521;-70
2021/11/15 06:11:25;;;;;;;4.85;2.97;;;;;;;6.79;85.70;99299.53;4845761;28;20042;-70
2021/11/15 06:13:51;;;;;;;1.77;1.38;;;;;;;6.77;86.13;99302.13;4798771;28;20058;-71
2021/11/15 06:16:16;;;;;;;7.70;2.67;;;;;;;6.77;86.26;99308.94;4847896;28;20058;-70
2021/11/15 06:18:42;;;;;;;2.65;2.25;;;;;;;6.75;86.15;99308.94;4847542;28;20408;-70
2021/11/15 06:21:08;;;;;;;7.68;3.10;;;;;;;6.76;86.44;99305.50;4799599;28;20095;-70
2021/11/15 06:23:33;;;;;;;6.45;2.95;;;;;;;6.83;86.20;99312.44;4843568;28;20070;-70
2021/11/15 06:25:59;;;;;;;2.72;2.05;;;;;;;6.82;86.26;99321.03;4934647;29;20063;-70
2021/11/15 06:28:25;;;;;;;3.20;2.97;;;;;;;6.92;85.94;99322.78;4933814;29;20079;-70
2021/11/15 06:30:50;;;;;;;1.48;1.35;;;;;;;6.84;85.79;99314.16;4927197;29;20020;-70
2021/11/15 06:33:16;;;;;;;5.55;2.15;;;;;;;6.79;86.84;99330.44;4934354;28;20027;-70
2021/11/15 06:35:41;;;;;;;2.00;1.77;;;;;;;6.82;87.41;99326.19;4891175;28;20044;-70
2021/11/15 06:38:06;;;;;;;2.25;2.05;;;;;;;6.86;86.67;99327.03;4934328;29;20090;-70
2021/11/15 06:40:33;;;;;;;4.05;2.70;;;;;;;6.79;86.95;99326.16;4934336;29;20052;-70
2021/11/15 06:42:58;;;;;;;1.58;1.48;;;;;;;6.77;86.79;99315.00;4934559;28;20024;-70
2021/11/15 06:45:23;;;;;;;1.25;1.15;;;;;;;6.84;86.68;99321.03;4934455;29;20115;-70
2021/11/15 06:47:49;;;;;;;2.60;2.45;;;;;;;6.81;86.37;99329.56;4934354;29;20028;-70
2021/11/15 06:50:19;;;;;;;9.10;2.42;;;;;;;6.81;86.85;99327.00;4934715;29;20376;-70
2021/11/15 06:52:46;;;;;;;4.05;2.88;;;;;;;6.84;87.04;99332.19;4894339;28;20094;-70
2021/11/15 06:55:13;;;;;;;2.45;1.75;;;;;;;6.83;86.94;99338.19;4934377;28;20040;-70
2021/11/15 06:57:40;;;;;;;1.83;1.73;;;;;;;6.92;87.00;99322.78;4933985;29;20036;-70
2021/11/15 07:00:08;;;;;;;3.30;1.60;;;;;;;6.77;87.22;99327.88;4926906;28;20023;-70
2021/11/15 07:02:33;;;;;;;1.52;1.45;;;;;;;6.84;86.14;99323.59;4934083;29;20036;-70
2021/11/15 07:04:59;;;;;;;2.92;2.45;;;;;;;6.78;87.49;99316.72;4934125;29;20055;-70
2021/11/15 07:07:24;;;;;;;3.47;1.60;;;;;;;6.86;87.05;99312.44;4934267;29;20023;-70
2021/11/15 07:09:49;;;;;;;3.00;2.70;;;;;;;6.99;86.90;99317.66;4933944;29;20126;-70
2021/11/15 07:12:16;;;;;;;1.48;1.38;;;;;;;6.83;87.22;99322.75;4934265;29;20026;-70
2021/11/15 07:14:42;;;;;;;4.03;2.42;;;;;;;6.86;87.68;99315.00;4936654;29;20038;-70
2021/11/15 07:17:07;;;;;;;3.35;2.35;;;;;;;6.85;87.89;99326.19;4937640;29;20036;-70
2021/11/15 07:19:33;;;;;;;2.85;1.60;;;;;;;6.87;87.44;99324.50;4937095;29;20024;-70
2021/11/15 07:21:58;;;;;;;3.35;2.15;;;;;;;6.87;87.53;99324.50;4937575;29;20066;-70
2021/11/15 07:24:23;;;;;;;2.85;2.15;;;;;;;6.88;87.35;99325.34;4892260;28;20400;-70
2021/11/15 07:26:49;;;;;;;2.33;2.13;;;;;;;6.78;87.42;99324.44;4846705;28;20507;-70
2021/11/15 07:29:14;;;;;;;2.47;2.30;;;;;;;6.79;87.83;99326.16;4801971;28;20044;-71
2021/11/15 07:31:42;;;;;;;2.25;2.05;;;;;;;6.83;87.76;99319.31;4841220;28;20082;-70
2021/11/15 07:34:07;;;;;;;1.30;1.30;;;;;;;6.80;87.37;99314.97;4841181;28;20044;-71
2021/11/15 07:36:33;;;;;;;1.58;1.48;;;;;;;6.88;87.08;99315.91;4811207;28;20050;-70
2021/11/15 07:38:59;;;;;;;5.82;2.65;;;;;;;6.83;87.43;99327.03;4847989;28;20050;-70
2021/11/15 07:41:24;;;;;;;1.50;1.50;;;;;;;6.78;87.69;99329.59;4802788;28;20110;-70
2021/11/15 07:43:50;;;;;;;3.20;2.83;;;;;;;6.82;87.51;99338.19;4847176;28;20039;-70
2021/11/15 07:46:16;;;;;;;2.92;2.72;;;;;;;6.88;87.65;99331.34;4808106;28;20062;-70
2021/11/15 07:48:41;;;;;;;1.92;1.83;;;;;;;6.85;87.60;99344.19;4855792;28;20039;-70
2021/11/15 07:51:06;;;;;;;4.28;2.85;;;;;;;6.86;87.40;99352.78;4845847;28;20103;-70
2021/11/15 07:53:36;;;;;;;3.42;2.35;;;;;;;6.85;87.97;99351.94;4803462;28;20095;-70
2021/11/15 07:56:06;;;;;;;3.58;1.85;;;;;;;6.80;87.43;99353.63;4847882;28;20035;-81
2021/11/15 07:58:32;;;;;;;2.15;1.98;;;;;;;6.90;86.76;99355.41;4802905;28;20036;-81
2021/11/15 08:00:57;;;;;;;2.92;1.73;;;;;;;6.87;86.66;99360.56;4839106;28;20477;-81
2021/11/15 08:03:23;;;;;;;3.20;2.90;;;;;;;6.90;86.64;99360.53;4799943;28;20180;-80
2021/11/15 08:05:48;;;;;;;1.33;1.30;;;;;;;6.89;86.75;99358.81;4847124;28;20040;-81
2021/11/15 08:08:14;;;;;;;2.30;2.05;;;;;;;6.91;87.13;99357.13;4818707;28;20401;-79
2021/11/15 08:10:39;;;;;;;2.20;1.77;;;;;;;6.86;87.08;99363.94;4827820;28;20041;-81
2021/11/15 08:13:05;;;;;;;5.22;3.47;;;;;;;6.85;86.83;99364.81;4847642;28;20196;-81
2021/11/15 08:15:30;;;;;;;1.50;1.38;;;;;;;6.89;87.18;99356.25;4803048;28;20082;-80
2021/11/15 08:17:59;;;;;;;4.10;2.60;;;;;;;6.98;86.55;99362.31;4847302;28;20461;-80
2021/11/15 08:20:32;;;;;;;4.03;2.30;;;;;;;6.95;86.69;99366.59;4799550;28;20051;-80
2021/11/15 08:23:03;;;;;;;3.92;2.70;;;;;;;6.85;86.96;99359.66;4841688;28;20516;-81
2021/11/15 08:26:13;;;;;;;3.75;2.13;;;;;;;7.04;87.22;99352.03;4783195;28;20374;-80
2021/11/15 08:28:39;;;;;;;1.42;1.38;;;;;;;7.01;86.05;99347.75;4780400;28;20049;-80
2021/11/15 08:31:06;;;;;;;1.83;1.73;;;;;;;7.15;86.52;99352.94;4826688;28;20047;-81
2021/11/15 08:36:53;;;;;;;2.85;2.58;;;;;;;7.10;86.56;99357.22;4917301;29;20405;-81
2021/11/15 08:39:22;;;;;;;5.65;1.88;;;;;;;7.00;86.63;99360.59;4916840;29;20028;-81
2021/11/15 08:41:51;;;;;;;2.80;1.63;;;;;;;7.04;86.46;99362.34;4917033;29;20031;-81
2021/11/15 08:44:18;;;;;;;2.75;2.55;;;;;;;6.99;86.69;99356.31;4916943;29;20027;-81
2021/11/15 08:46:47;;;;;;;4.15;3.13;;;;;;;6.99;86.88;99364.03;4917000;29;20052;-81
2021/11/15 08:49:15;;;;;;;3.08;2.15;;;;;;;7.01;86.55;99363.22;4916526;29;20103;-81
2021/11/15 08:51:42;;;;;;;8.57;5.32;;;;;;;7.10;86.54;99375.25;4916710;29;20032;-81
2021/11/15 08:54:09;;;;;;;4.40;2.05;;;;;;;7.08;86.20;99359.81;4916914;29;20099;-81
2021/11/15 08:56:36;;;;;;;1.95;1.85;;;;;;;7.17;86.53;99359.00;4916406;29;20107;-81
2021/11/15 08:59:01;;;;;;;2.95;2.20;;;;;;;6.97;86.69;99361.47;4898934;29;20020;-81
2021/11/15 09:01:27;;;;;;;4.65;2.08;;;;;;;6.97;86.88;99366.63;4912349;29;20039;-81
2021/11/15 09:03:53;;;;;;;4.38;3.95;;;;;;;7.02;86.66;99369.22;4916921;29;20020;-81
2021/11/15 09:06:20;;;;;;;3.50;2.63;;;;;;;6.97;86.64;99370.91;4916933;29;20028;-81
2021/11/15 09:08:46;;;;;;;3.80;2.63;;;;;;;7.08;86.55;99364.94;4916425;29;20030;-81
2021/11/15 09:11:12;;;;;;;2.70;2.13;;;;;;;7.03;86.72;99376.09;4916426;29;20032;-81
2021/11/15 09:13:40;;;;;;;4.57;1.65;;;;;;;7.03;86.55;99370.94;4916532;29;20043;-81
2021/11/15 09:16:07;;;;;;;2.45;2.15;;;;;;;7.12;86.34;99371.00;4916422;29;20118;-81
2021/11/15 09:18:34;;;;;;;2.55;2.30;;;;;;;7.04;87.36;99367.50;4916421;29;20024;-81
2021/11/15 09:20:59;;;;;;;6.00;3.10;;;;;;;7.13;86.81;99368.41;4916227;29;20430;-81
2021/11/15 09:23:25;;;;;;;2.38;1.88;;;;;;;7.05;85.94;99364.06;4916436;29;20047;-81
2021/11/15 09:25:51;;;;;;;3.22;2.17;;;;;;;7.03;86.80;99370.94;4916340;29;20078;-81
2021/11/15 09:28:17;;;;;;;9.70;2.97;;;;;;;7.18;86.04;99360.72;4915813;29;20036;-81
2021/11/15 09:30:43;;;;;;;5.63;4.15;;;;;;;7.08;86.18;99364.09;4908786;29;20401;-81
2021/11/15 09:33:10;;;;;;;5.88;4.35;;;;;;;7.10;86.34;99367.53;4916097;29;20058;-81
2021/11/15 09:35:36;;;;;;;2.53;2.15;;;;;;;7.11;85.81;99364.13;4915750;29;20039;-81
2021/11/15 09:38:03;;;;;;;3.83;2.70;;;;;;;7.20;85.05;99369.28;4915945;29;20446;-81
2021/11/15 09:40:28;;;;;;;3.85;2.65;;;;;;;7.21;85.19;99365.88;4914625;29;20107;-81
2021/11/15 09:42:57;;;;;;;4.60;3.28;;;;;;;7.15;85.02;99360.69;4916064;29;20549;-81
2021/11/15 09:45:24;;;;;;;2.42;1.85;;;;;;;7.18;85.00;99364.16;4915958;29;20396;-71
2021/11/15 09:47:51;;;;;;;3.65;1.63;;;;;;;7.17;85.30;99364.16;4915965;29;20032;-71
2021/11/15 09:50:17;;;;;;;3.25;2.28;;;;;;;7.17;85.37;99356.41;4915873;29;20461;-71
2021/11/15 09:52:43;;;;;;;4.57;2.95;;;;;;;7.12;85.03;99355.53;4916094;29;20039;-71
2021/11/15 09:55:09;;;;;;;5.28;2.17;;;;;;;7.13;85.70;99357.25;4915853;29;20020;-71
2021/11/15 09:57:41;;;;;;;5.03;4.05;;;;;;;7.20;85.55;99357.31;4915326;29;20024;-70
2021/11/15 10:00:10;;;;;;;4.07;2.85;;;;;;;7.36;84.95;99355.66;4894698;29;20031;-70
2021/11/15 10:02:37;;;;;;;1.50;1.33;;;;;;;7.29;84.48;99351.31;4915822;29;20038;-75
2021/11/15 10:05:07;;;;;;;3.00;2.80;;;;;;;7.22;84.56;99357.28;4915734;29;20047;-75
2021/11/15 10:07:45;;;;;;;3.15;2.55;;;;;;;7.29;84.92;99348.72;4915825;29;20028;-81
2021/11/15 10:10:31;;;;;;;2.92;2.67;;;;;;;7.39;84.56;99347.91;4915678;29;20482;-75
2021/11/15 10:13:09;;;;;;;10.38;3.45;;;;;;;7.36;84.21;99350.50;4915847;29;20028;-75
2021/11/15 10:15:51;;;;;;;12.10;4.63;;;;;;;7.32;84.71;99343.59;4915883;29;20039;-75
2021/11/15 10:18:36;;;;;;;5.10;2.40;;;;;;;7.33;84.88;99340.16;4915559;29;20032;-81
2021/11/15 10:21:50;;;;;;;3.63;2.80;;;;;;;7.39;84.08;99335.00;4915561;29;20091;-81
2021/11/15 10:24:20;;;;;;;6.30;2.83;;;;;;;7.50;84.05;99329.06;4913369;29;20036;-81
2021/11/15 10:26:50;;;;;;;;;;;;;;;7.64;83.63;99330.81;4913101;29;20573;-81
2021/11/15 10:29:35;;;;;;;2.20;2.03;;;;;;;7.39;84.79;99329.00;4901479;29;19968;-81
2021/11/15 10:32:07;;;;;;;3.20;3.03;;;;;;;7.48;84.56;99334.19;4899831;29;20024;-81
2021/11/15 10:34:36;;;;;;;9.65;3.58;;;;;;;7.50;84.98;99331.66;4915508;29;20032;-81
2021/11/15 10:37:04;;;;;;;8.43;3.30;;;;;;;7.40;84.25;99334.19;4915953;29;20482;-81
2021/11/15 10:39:32;;;;;;;4.50;3.65;;;;;;;7.31;84.60;99331.56;4915161;29;20040;-81
2021/11/15 10:42:07;;;;;;;3.45;1.80;;;;;;;7.25;84.35;99326.38;4915353;29;20028;-71
2021/11/15 10:44:34;;;;;;;5.10;2.60;;;;;;;7.40;84.75;99321.28;4915606;29;20482;-71
2021/11/15 10:46:59;;;;;;;1.75;1.52;;;;;;;7.34;83.83;99310.94;4915650;29;20057;-71
2021/11/15 10:49:25;;;;;;;4.85;3.22;;;;;;;7.46;84.36;99315.28;4918718;29;20431;-71
2021/11/15 10:51:56;;;;;;;4.32;3.78;;;;;;;7.52;83.72;99324.75;4919068;29;20032;-71
2021/11/15 10:54:41;;;;;;;3.55;2.45;;;;;;;7.50;83.87;99326.50;4918951;29;20032;-70
2021/11/15 10:57:34;;;;;;;2.25;2.03;;;;;;;7.72;83.89;99323.09;4918660;29;20028;-70
2021/11/15 11:00:05;;;;;;;3.97;3.10;;;;;;;7.50;83.10;99322.19;4911460;29;20019;-80
2021/11/15 11:02:33;;;;;;;5.70;3.25;;;;;;;7.39;83.56;99319.53;4919099;29;20036;-81
2021/11/15 11:05:17;;;;;;;4.80;2.30;;;;;;;7.52;83.18;99324.75;4918736;29;20366;-81
2021/11/15 11:08:05;;;;;;;2.78;2.40;;;;;;;7.67;83.75;99324.78;4918621;29;20032;-81
2021/11/15 11:10:38;;;;;;;3.58;1.67;;;;;;;7.67;83.03;99324.78;4917965;29;20461;-81
2021/11/15 11:13:04;;;;;;;2.25;2.13;;;;;;;7.65;82.42;99326.53;4918619;29;20121;-81
2021/11/15 11:15:39;;;;;;;2.17;1.98;;;;;;;7.46;81.96;99316.16;4917344;29;20032;-70
2021/11/15 11:18:30;;;;;;;5.45;2.55;;;;;;;7.57;81.79;99311.00;4918613;29;20500;-70
2021/11/15 11:26:36;;;;;;;7.80;2.22;;;;;;;7.54;82.57;99307.56;4918532;29;20032;-76
2021/11/15 11:29:09;;;;;;;1.73;1.63;;;;;;;7.52;81.72;99301.56;4946349;23;20053;-72
2021/11/15 11:31:37;;;;;;;1.90;1.80;;;;;;;7.53;81.23;99311.84;4911505;29;20056;-72
2021/11/15 11:34:04;;;;;;;3.33;2.05;;;;;;;7.51;81.32;99302.41;4897980;29;20037;-72
2021/11/15 11:36:29;;;;;;;5.50;2.97;;;;;;;7.49;81.55;99304.97;4899306;29;20063;-72
2021/11/15 11:38:55;;;;;;;3.85;2.50;;;;;;;7.42;81.57;99303.25;4890905;29;20471;-72
2021/11/15 11:41:21;;;;;;;3.10;2.80;;;;;;;7.47;81.63;99304.97;4880545;29;20033;-72
2021/11/15 11:43:48;;;;;;;3.58;3.17;;;;;;;7.56;81.37;99300.72;4879219;29;20033;-72
2021/11/15 11:46:16;;;;;;;6.93;3.05;;;;;;;7.53;80.98;99306.69;4880287;29;20079;-75
2021/11/15 11:48:47;;;;;;;2.30;2.10;;;;;;;7.45;81.03;99309.28;4880375;29;20021;-72
2021/11/15 11:51:14;;;;;;;5.65;3.17;;;;;;;7.52;81.59;99301.56;4880357;29;20029;-73
2021/11/15 11:53:39;;;;;;;7.60;1.98;;;;;;;7.59;81.23;99303.28;4880399;29;20033;-72
2021/11/15 11:56:23;;;;;;;4.30;2.60;;;;;;;7.52;81.34;99304.13;4880266;29;20534;-73
2021/11/15 11:58:53;;;;;;;4.68;3.20;;;;;;;7.46;81.58;99295.53;4895356;29;20037;-75
2021/11/15 12:01:21;;;;;;;6.78;2.33;;;;;;;7.42;81.55;99293.78;4893376;29;20080;-76
2021/11/15 12:04:11;;;;;;;4.50;3.00;;;;;;;7.38;81.91;99292.06;4898834;29;20088;-75
2021/11/15 12:06:37;;;;;;;3.25;2.47;;;;;;;7.31;81.94;99290.31;4898905;29;20024;-74
2021/11/15 12:09:04;;;;;;;5.65;3.30;;;;;;;7.37;82.27;99290.34;4898572;29;20076;-73
2021/11/15 12:11:45;;;;;;;2.92;2.47;;;;;;;7.40;82.63;99290.34;4898640;29;20020;-75
2021/11/15 12:14:13;;;;;;;9.73;5.38;;;;;;;7.41;82.52;99281.75;4898588;29;20032;-75
2021/11/15 12:16:57;;;;;;;3.03;2.53;;;;;;;7.30;82.26;99278.31;4898485;29;20021;-75
2021/11/15 12:19:46;;;;;;;5.30;3.20;;;;;;;7.32;82.96;99276.56;4898211;29;20025;-76
2021/11/15 12:22:15;;;;;;;1.95;1.85;;;;;;;7.33;82.59;99273.13;4898282;29;20541;-75
2021/11/15 12:25:05;;;;;;;3.43;2.80;;;;;;;7.31;83.06;99280.03;4881763;28;20469;-75
2021/11/15 12:27:46;;;;;;;2.35;2.15;;;;;;;7.31;82.94;99277.44;4916745;29;20312;-75
2021/11/15 12:30:14;;;;;;;4.88;2.22;;;;;;;7.33;83.11;99280.88;4893731;29;20521;-73
2021/11/15 12:32:44;;;;;;;3.42;3.13;;;;;;;7.32;82.78;99286.88;4898703;29;20503;-73
2021/11/15 12:35:10;;;;;;;3.72;2.17;;;;;;;7.34;82.68;99286.88;4917186;29;20055;-75
2021/11/15 12:37:42;;;;;;;5.07;2.42;;;;;;;7.24;82.78;99283.41;4915824;29;20103;-73
2021/11/15 12:40:29;;;;;;;5.00;3.10;;;;;;;7.28;83.29;99284.28;4916757;29;20039;-73
2021/11/15 12:43:15;;;;;;;4.63;3.08;;;;;;;7.24;83.15;99291.16;4915540;29;20021;-74
2021/11/15 12:46:06;;;;;;;3.05;2.55;;;;;;;7.30;83.14;99282.56;4916955;29;20039;-75
2021/11/15 12:48:33;;;;;;;2.65;2.45;;;;;;;7.40;83.45;99286.94;4916786;29;20032;-75
2021/11/15 12:51:11;;;;;;;3.17;2.83;;;;;;;7.34;82.48;99280.00;4916683;29;20058;-75
2021/11/15 12:53:40;;;;;;;3.65;3.17;;;;;;;7.36;81.91;99273.16;4916734;29;20028;-75
2021/11/15 12:56:06;;;;;;;2.60;2.40;;;;;;;7.29;82.28;99275.69;4916742;29;20107;-75
2021/11/15 12:58:31;;;;;;;5.80;4.30;;;;;;;7.33;82.35;99273.13;4916504;29;20462;-76
2021/11/15 13:00:56;;;;;;;4.65;2.70;;;;;;;7.37;82.72;99269.72;4903656;29;20032;-75
2021/11/15 13:03:22;;;;;;;4.60;3.28;;;;;;;7.45;81.88;99268.03;4908483;29;20028;-73
2021/11/15 13:05:50;;;;;;;4.57;2.95;;;;;;;7.40;82.05;99262.00;4916617;29;20025;-73
2021/11/15 13:08:15;;;;;;;2.58;2.38;;;;;;;7.36;82.20;99257.69;4916458;29;20107;-73
2021/11/15 13:10:44;;;;;;;3.38;2.67;;;;;;;7.26;82.34;99261.09;4916472;29;20521;-75
2021/11/15 13:13:15;;;;;;;6.32;3.58;;;;;;;7.40;82.19;99249.13;4912762;29;20115;-75
2021/11/15 13:15:42;;;;;;;4.93;2.83;;;;;;;7.40;82.04;99243.97;4916371;29;20514;-75
2021/11/15 13:18:07;;;;;;;7.43;3.75;;;;;;;7.39;82.08;99246.50;4916339;29;20036;-72
2021/11/15 13:20:33;;;;;;;3.03;2.83;;;;;;;7.36;82.04;99243.94;4914904;29;20047;-72
2021/11/15 13:22:58;;;;;;;3.97;3.30;;;;;;;7.39;81.83;99242.22;4916291;29;20028;-73
2021/11/15 13:25:27;;;;;;;3.47;2.40;;;;;;;7.35;81.69;99243.09;4916292;29;20054;-72
2021/11/15 13:27:53;;;;;;;5.60;3.28;;;;;;;7.33;82.24;99239.63;4916171;29;20028;-74
2021/11/15 13:30:21;;;;;;;4.72;4.07;;;;;;;7.29;82.33;99245.63;4908743;29;20026;-74
2021/11/15 13:32:56;;;;;;;2.28;2.17;;;;;;;7.34;82.47;99249.06;4908232;29;20028;-74
2021/11/15 13:35:23;;;;;;;2.58;2.38;;;;;;;7.35;82.67;99245.66;4914850;29;20032;-73
2021/11/15 13:38:00;;;;;;;3.75;3.30;;;;;;;7.39;82.07;99247.38;4916152;29;20032;-73
2021/11/15 13:40:34;;;;;;;2.15;2.00;;;;;;;7.38;82.27;99248.22;4916046;29;20080;-73
2021/11/15 13:43:02;;;;;;;10.23;4.97;;;;;;;7.36;82.54;99244.81;4909924;29;20131;-73
2021/11/15 13:45:33;;;;;;;3.05;2.78;;;;;;;7.48;82.38;99246.53;4911624;29;20032;-73
2021/11/15 13:47:59;;;;;;;3.35;2.78;;;;;;;7.40;82.50;99256.84;4915808;29;20063;-75
2021/11/15 13:50:24;;;;;;;3.25;2.60;;;;;;;7.44;82.50;99243.09;4915719;29;20052;-75
2021/11/15 13:52:50;;;;;;;4.75;2.92;;;;;;;7.43;82.61;99256.84;4914683;29;20028;-74
2021/11/15 13:55:15;;;;;;;4.18;2.97;;;;;;;7.40;82.53;99264.59;4915810;29;20028;-73
2021/11/15 13:57:41;;;;;;;2.00;1.80;;;;;;;7.42;82.41;99257.69;4915854;29;20058;-73
2021/11/15 14:00:07;;;;;;;3.10;2.15;;;;;;;7.33;82.81;99252.50;4908377;29;20091;-73
2021/11/15 14:02:34;;;;;;;3.78;2.42;;;;;;;7.44;82.78;99249.97;4907941;29;20032;-76
2021/11/15 14:04:59;;;;;;;3.22;2.40;;;;;;;7.35;82.97;99258.56;4915738;29;20032;-73
2021/11/15 14:07:24;;;;;;;4.47;2.70;;;;;;;7.36;82.59;99257.69;4915680;29;20031;-73
2021/11/15 14:16:33;;;;;;;5.03;2.70;;;;;;;7.31;82.73;99255.97;4878100;29;20040;-73
2021/11/15 14:18:58;;;;;;;2.85;2.55;;;;;;;7.30;83.40;99257.69;4877885;29;20368;-73
2021/11/15 14:21:24;;;;;;;4.60;3.50;;;;;;;7.25;82.65;99259.34;4878071;29;20056;-73
2021/11/15 14:23:49;;;;;;;6.88;3.88;;;;;;;7.21;82.86;99261.09;4885734;29;20035;-73
2021/11/15 14:26:16;;;;;;;2.53;2.35;;;;;;;7.22;82.83;99259.38;4919228;29;20035;-73
2021/11/15 14:28:41;;;;;;;3.58;2.80;;;;;;;7.16;83.04;99261.94;4900491;29;20047;-73
2021/11/15 14:31:09;;;;;;;3.13;2.15;;;;;;;7.20;83.60;99266.22;4893097;29;20024;-73
2021/11/15 14:33:34;;;;;;;3.00;2.63;;;;;;;7.28;82.57;99267.09;4895291;29;20025;-73
2021/11/15 14:36:00;;;;;;;3.47;2.33;;;;;;;7.20;82.62;99261.06;4900452;29;20039;-73
2021/11/15 14:38:26;;;;;;;3.13;2.88;;;;;;;7.16;82.31;99259.34;4914829;29;20466;-73
2021/11/15 14:40:52;;;;;;;3.88;3.53;;;;;;;7.06;82.96;99257.56;4915122;29;20063;-73
2021/11/15 14:43:17;;;;;;;2.75;2.60;;;;;;;7.09;82.88;99255.03;4907636;29;20312;-73
2021/11/15 14:45:42;;;;;;;5.53;2.78;;;;;;;7.11;82.45;99255.91;4915396;29;20389;-74
2021/11/15 14:48:08;;;;;;;4.68;3.10;;;;;;;7.00;83.00;99254.97;4918845;29;20546;-74
2021/11/15 14:50:34;;;;;;;3.08;2.83;;;;;;;6.90;82.76;99252.38;4918660;29;20028;-73
2021/11/15 14:53:00;;;;;;;3.85;2.90;;;;;;;6.94;82.88;99253.25;4917507;29;20409;-74
2021/11/15 14:55:27;;;;;;;5.10;3.13;;;;;;;6.95;82.87;99260.97;4918710;29;20032;-74
2021/11/15 14:57:52;;;;;;;4.18;2.88;;;;;;;6.97;83.05;99261.00;4918700;29;20024;-73
2021/11/15 15:00:20;;;;;;;1.83;1.73;;;;;;;6.99;82.81;99264.44;4911268;29;20047;-74
2021/11/15 15:02:46;;;;;;;4.93;2.70;;;;;;;6.95;82.70;99260.97;4910765;29;20024;-74
2021/11/15 15:05:12;;;;;;;4.82;1.70;;;;;;;6.94;82.63;99273.84;4918410;29;20024;-74
2021/11/15 15:07:38;;;;;;;5.18;2.60;;;;;;;6.91;82.92;99259.25;4918597;29;20067;-74
2021/11/15 15:10:08;;;;;;;3.72;2.75;;;;;;;6.88;83.44;99259.22;4918190;29;20139;-74
2021/11/15 15:12:38;;;;;;;4.00;3.63;;;;;;;6.87;83.55;99262.66;4915785;29;20453;-74
2021/11/15 15:15:06;;;;;;;2.95;2.75;;;;;;;6.78;83.11;99260.03;4903959;29;20036;-74
2021/11/15 15:17:33;;;;;;;2.65;2.53;;;;;;;6.80;83.16;99258.31;4918224;29;20028;-73
2021/11/15 15:20:02;;;;;;;4.63;3.25;;;;;;;6.75;83.77;99267.75;4918091;29;20031;-74
2021/11/15 15:22:28;;;;;;;6.43;3.60;;;;;;;6.73;83.37;99259.16;4918256;29;20027;-73
2021/11/15 15:24:53;;;;;;;3.75;2.40;;;;;;;6.70;83.34;99264.28;4918277;29;20385;-74
2021/11/15 15:27:18;;;;;;;2.88;2.67;;;;;;;6.69;83.61;99266.00;4916831;29;20024;-74
2021/11/15 15:29:44;;;;;;;5.38;2.28;;;;;;;6.75;83.33;99262.59;4910706;29;20082;-73
2021/11/15 15:32:09;;;;;;;2.53;2.22;;;;;;;6.66;83.51;99254.81;4910177;29;20024;-74
2021/11/15 15:34:35;;;;;;;2.13;2.03;;;;;;;6.74;83.92;99255.72;4916845;29;20030;-74
2021/11/15 15:37:00;;;;;;;3.13;2.88;;;;;;;6.66;83.66;99257.41;4918096;29;20028;-74
2021/11/15 15:39:26;;;;;;;4.88;3.15;;;;;;;6.68;84.09;99258.28;4916267;29;20032;-74
2021/11/15 15:41:54;;;;;;;2.97;2.70;;;;;;;6.74;83.50;99250.56;4915565;29;20031;-74
2021/11/15 15:44:20;;;;;;;2.53;2.30;;;;;;;6.68;83.52;99246.25;4909924;29;20028;-74
2021/11/15 15:46:45;;;;;;;4.00;3.17;;;;;;;6.70;83.67;99254.84;4919108;29;20043;-77
2021/11/15 15:49:11;;;;;;;4.80;2.75;;;;;;;6.69;83.41;99257.41;4917545;29;20374;-75
2021/11/15 15:51:37;;;;;;;2.83;2.63;;;;;;;6.63;83.75;99252.25;4916596;29;20032;-74
2021/11/15 15:54:02;;;;;;;7.65;3.83;;;;;;;6.65;84.29;99250.53;4917788;29;20482;-73
2021/11/15 15:56:30;;;;;;;2.42;2.17;;;;;;;6.65;83.95;99250.53;4917642;29;20401;-73
2021/11/15 15:58:57;;;;;;;5.15;2.80;;;;;;;6.63;84.15;99262.53;4915662;29;20443;-73
2021/11/15 16:01:22;;;;;;;3.90;3.50;;;;;;;6.73;83.88;99259.16;4906437;29;20032;-74
2021/11/15 16:03:54;;;;;;;4.13;3.72;;;;;;;6.65;83.88;99265.97;4916089;29;20043;-74
2021/11/15 16:14:45;;;;;;;2.65;2.40;;;;;;;6.61;84.62;99265.09;4905431;29;20119;-74
2021/11/15 16:17:13;;;;;;;5.63;3.53;;;;;;;6.62;84.59;99277.13;4898273;29;20119;-74
2021/11/15 16:19:39;;;;;;;2.78;2.35;;;;;;;6.65;84.75;99278.84;4898337;29;20040;-74
2021/11/15 16:22:05;;;;;;;7.22;3.33;;;;;;;6.63;84.80;99272.84;4898398;29;20024;-74
2021/11/15 16:24:31;;;;;;;2.75;1.80;;;;;;;6.65;84.22;99278.84;4898419;29;20035;-74